createdAt,value
2016-09-01T00:00:40.787Z,959.73
2016-09-01T00:01:45.866Z,959.74
2016-09-01T00:02:51.561Z,959.74
2016-09-01T00:03:44.254Z,959.76
2016-09-01T00:04:37.651Z,959.77
2016-09-01T00:05:44.409Z,959.74
2016-09-01T00:06:45.409Z,959.76
2016-09-01T00:07:45.101Z,959.75
2016-09-01T00:08:44.409Z,959.73
2016-09-01T00:09:45.946Z,959.76
2016-09-01T00:10:49.864Z,959.75
2016-09-01T00:11:50.279Z,959.78
2016-09-01T00:12:48.896Z,959.76
2016-09-01T00:13:51.079Z,959.72
2016-09-01T00:14:40.849Z,959.77
2016-09-01T00:15:46.456Z,959.71
2016-09-01T00:16:39.411Z,959.74
2016-09-01T00:17:45.488Z,959.73
2016-09-01T00:18:41.933Z,959.74
2016-09-01T00:19:40.290Z,959.75
2016-09-01T00:20:50.922Z,959.75
2016-09-01T00:21:50.460Z,959.76
2016-09-01T00:22:50.032Z,959.78
2016-09-01T00:23:49.969Z,959.74
2016-09-01T00:24:45.234Z,959.77
2016-09-01T00:25:44.900Z,959.75
2016-09-01T00:26:50.461Z,959.75
2016-09-01T00:27:44.230Z,959.75
2016-09-01T00:28:40.479Z,959.73
2016-09-01T00:29:42.713Z,959.75
2016-09-01T00:30:44.711Z,959.75
2016-09-01T00:31:51.130Z,959.79
2016-09-01T00:32:51.027Z,959.80
2016-09-01T00:33:40.903Z,959.78
2016-09-01T00:34:39.775Z,959.78
2016-09-01T00:35:52.231Z,959.81
2016-09-01T00:36:52.234Z,959.79
2016-09-01T00:37:38.182Z,959.78
2016-09-01T00:38:41.625Z,959.79
2016-09-01T00:39:45.126Z,959.75
2016-09-01T00:40:34.814Z,959.80
2016-09-01T00:41:39.570Z,959.76
2016-09-01T00:42:44.244Z,959.76
2016-09-01T00:43:42.099Z,959.73
2016-09-01T00:44:39.660Z,959.74
2016-09-01T00:45:40.322Z,959.73
2016-09-01T00:46:56.685Z,959.68
2016-09-01T00:47:54.735Z,959.71
2016-09-01T00:48:54.657Z,959.73
2016-09-01T00:49:55.320Z,959.77
2016-09-01T00:50:40.309Z,959.75
2016-09-01T00:51:43.187Z,959.78
2016-09-01T00:52:44.756Z,959.75
2016-09-01T00:53:36.280Z,959.77
2016-09-01T00:54:38.811Z,959.76
2016-09-01T00:55:49.934Z,959.77
2016-09-01T00:56:50.774Z,959.78
2016-09-01T00:57:45.127Z,959.76
2016-09-01T00:58:41.083Z,959.79
2016-09-01T00:59:54.869Z,959.79
2016-09-01T01:01:41.163Z,959.80
2016-09-01T01:02:45.143Z,959.82
2016-09-01T01:03:45.207Z,959.79
2016-09-01T01:04:48.053Z,959.74
2016-09-01T01:05:45.747Z,959.77
2016-09-01T01:06:51.491Z,959.72
2016-09-01T01:07:45.541Z,959.73
2016-09-01T01:08:45.384Z,959.74
2016-09-01T01:09:45.860Z,959.71
2016-09-01T01:10:46.369Z,959.76
2016-09-01T01:12:04.733Z,959.71
2016-09-01T01:13:17.068Z,959.72
2016-09-01T01:13:56.447Z,959.74
2016-09-01T01:14:40.510Z,959.75
2016-09-01T01:15:44.891Z,959.72
2016-09-01T01:16:40.325Z,959.76
2016-09-01T01:17:50.331Z,959.71
2016-09-01T01:18:47.269Z,959.75
2016-09-01T01:19:52.795Z,959.68
2016-09-01T01:21:00.997Z,959.69
2016-09-01T01:22:00.074Z,959.73
2016-09-01T01:22:43.194Z,959.70
2016-09-01T01:23:43.336Z,959.74
2016-09-01T01:24:29.901Z,959.74
2016-09-01T01:25:40.479Z,959.75
2016-09-01T01:26:45.869Z,959.81
2016-09-01T01:27:34.616Z,959.82
2016-09-01T01:28:45.406Z,959.81
2016-09-01T01:29:40.119Z,959.80
2016-09-01T01:30:49.280Z,959.79
2016-09-01T01:31:39.327Z,959.75
2016-09-01T01:32:43.413Z,959.78
2016-09-01T01:33:55.592Z,959.75
2016-09-01T01:34:44.501Z,959.76
2016-09-01T01:35:48.793Z,959.76
2016-09-01T01:36:43.886Z,959.77
2016-09-01T01:37:59.344Z,959.82
2016-09-01T01:38:48.667Z,959.77
2016-09-01T01:39:43.518Z,959.78
2016-09-01T01:40:40.156Z,959.72
2016-09-01T01:41:41.047Z,959.76
2016-09-01T01:42:54.486Z,959.72
2016-09-01T01:43:43.788Z,959.72
2016-09-01T01:44:37.014Z,959.72
2016-09-01T01:45:51.041Z,959.69
2016-09-01T01:46:45.912Z,959.72
2016-09-01T01:47:58.350Z,959.71
2016-09-01T01:48:47.782Z,959.69
2016-09-01T01:49:50.338Z,959.71
2016-09-01T01:50:49.502Z,959.76
2016-09-01T01:51:50.810Z,959.78
2016-09-01T01:52:39.844Z,959.72
2016-09-01T01:53:44.842Z,959.79
2016-09-01T01:54:46.123Z,959.75
2016-09-01T01:55:45.083Z,959.70
2016-09-01T01:57:01.494Z,959.69
2016-09-01T01:57:44.420Z,959.70
2016-09-01T01:58:41.021Z,959.67
2016-09-01T01:59:45.436Z,959.64
2016-09-01T02:00:45.779Z,959.66
2016-09-01T02:01:49.887Z,959.69
2016-09-01T02:02:49.419Z,959.69
2016-09-01T02:03:44.923Z,959.69
2016-09-01T02:04:49.808Z,959.70
2016-09-01T02:05:49.887Z,959.69
2016-09-01T02:06:44.531Z,959.71
2016-09-01T02:07:39.791Z,959.72
2016-09-01T02:08:34.803Z,959.69
2016-09-01T02:09:45.588Z,959.68
2016-09-01T02:10:45.845Z,959.71
2016-09-01T02:11:45.349Z,959.72
2016-09-01T02:12:44.236Z,959.71
2016-09-01T02:13:52.002Z,959.75
2016-09-01T02:14:43.484Z,959.69
2016-09-01T02:15:45.253Z,959.72
2016-09-01T02:16:54.495Z,959.75
2016-09-01T02:17:48.821Z,959.78
2016-09-01T02:18:44.558Z,959.82
2016-09-01T02:19:48.891Z,959.76
2016-09-01T02:20:40.786Z,959.79
2016-09-01T02:21:47.354Z,959.79
2016-09-01T02:22:49.555Z,959.76
2016-09-01T02:23:34.996Z,959.81
2016-09-01T02:24:49.105Z,959.80
2016-09-01T02:26:02.537Z,959.83
2016-09-01T02:26:46.267Z,959.83
2016-09-01T02:27:53.913Z,959.78
2016-09-01T02:28:56.454Z,959.80
2016-09-01T02:29:44.950Z,959.81
2016-09-01T02:30:45.895Z,959.80
2016-09-01T02:31:40.049Z,959.71
2016-09-01T02:32:40.716Z,959.75
2016-09-01T02:33:58.390Z,959.72
2016-09-01T02:34:42.477Z,959.73
2016-09-01T02:35:45.647Z,959.70
2016-09-01T02:36:59.223Z,959.76
2016-09-01T02:37:53.325Z,959.75
2016-09-01T02:38:44.542Z,959.71
2016-09-01T02:39:50.725Z,959.74
2016-09-01T02:40:45.986Z,959.73
2016-09-01T02:41:45.679Z,959.73
2016-09-01T02:42:43.131Z,959.71
2016-09-01T02:43:46.091Z,959.75
2016-09-01T02:44:50.638Z,959.74
2016-09-01T02:45:45.063Z,959.74
2016-09-01T02:46:50.299Z,959.77
2016-09-01T02:47:49.597Z,959.72
2016-09-01T02:48:40.434Z,959.74
2016-09-01T02:49:44.492Z,959.73
2016-09-01T02:50:40.822Z,959.73
2016-09-01T02:51:40.975Z,959.74
2016-09-01T02:52:44.294Z,959.73
2016-09-01T02:53:49.593Z,959.74
2016-09-01T02:54:50.451Z,959.76
2016-09-01T02:55:45.234Z,959.78
2016-09-01T02:56:44.718Z,959.76
2016-09-01T02:57:45.406Z,959.75
2016-09-01T02:58:49.886Z,959.76
2016-09-01T02:59:41.051Z,959.68
2016-09-01T03:00:40.485Z,959.74
2016-09-01T03:01:44.896Z,959.73
2016-09-01T03:02:43.065Z,959.72
2016-09-01T03:03:39.110Z,959.71
2016-09-01T03:04:44.933Z,959.69
2016-09-01T03:05:45.607Z,959.65
2016-09-01T03:06:45.297Z,959.63
2016-09-01T03:07:51.949Z,959.65
2016-09-01T03:08:58.350Z,959.59
2016-09-01T03:09:52.384Z,959.63
2016-09-01T03:10:44.844Z,959.58
2016-09-01T03:11:49.811Z,959.61
2016-09-01T03:12:41.249Z,959.55
2016-09-01T03:13:40.380Z,959.55
2016-09-01T03:14:43.036Z,959.53
2016-09-01T03:15:45.669Z,959.57
2016-09-01T03:16:45.008Z,959.55
2016-09-01T03:17:40.080Z,959.58
2016-09-01T03:18:51.230Z,959.53
2016-09-01T03:19:54.680Z,959.61
2016-09-01T03:20:44.431Z,959.61
2016-09-01T03:21:44.637Z,959.70
2016-09-01T03:22:53.676Z,959.71
2016-09-01T03:23:45.631Z,959.73
2016-09-01T03:24:54.489Z,959.77
2016-09-01T03:25:44.216Z,959.78
2016-09-01T03:26:57.542Z,959.77
2016-09-01T03:27:46.758Z,959.75
2016-09-01T03:28:40.512Z,959.79
2016-09-01T03:29:39.914Z,959.76
2016-09-01T03:30:49.490Z,959.70
2016-09-01T03:31:50.550Z,959.78
2016-09-01T03:32:45.521Z,959.78
2016-09-01T03:33:40.464Z,959.77
2016-09-01T03:34:40.368Z,959.83
2016-09-01T03:35:44.678Z,959.81
2016-09-01T03:36:45.556Z,959.85
2016-09-01T03:38:01.591Z,959.87
2016-09-01T03:38:45.237Z,959.90
2016-09-01T03:39:45.086Z,959.90
2016-09-01T03:40:40.484Z,959.94
2016-09-01T03:41:45.795Z,959.96
2016-09-01T03:42:44.643Z,960.02
2016-09-01T03:43:51.131Z,960.01
2016-09-01T03:44:45.597Z,959.99
2016-09-01T03:45:49.475Z,960.03
2016-09-01T03:46:40.722Z,960.03
2016-09-01T03:47:44.042Z,960.04
2016-09-01T03:48:35.251Z,960.00
2016-09-01T03:49:47.337Z,959.97
2016-09-01T03:50:44.689Z,959.95
2016-09-01T03:51:51.145Z,959.92
2016-09-01T03:52:14.869Z,959.98
2016-09-01T03:53:48.579Z,960.00
2016-09-01T03:54:44.837Z,959.99
2016-09-01T03:55:45.637Z,960.00
2016-09-01T03:56:44.559Z,959.99
2016-09-01T03:57:41.214Z,960.02
2016-09-01T03:58:44.122Z,959.99
2016-09-01T03:59:45.347Z,960.02
2016-09-01T04:00:44.418Z,960.03
2016-09-01T04:01:44.388Z,960.02
2016-09-01T04:02:49.903Z,960.04
2016-09-01T04:03:45.735Z,960.05
2016-09-01T04:04:49.511Z,960.05
2016-09-01T04:05:29.945Z,960.05
2016-09-01T04:06:40.473Z,960.06
2016-09-01T04:07:40.607Z,960.05
2016-09-01T04:08:51.552Z,960.10
2016-09-01T04:09:54.974Z,960.06
2016-09-01T04:10:36.890Z,960.09
2016-09-01T04:11:40.793Z,960.14
2016-09-01T04:12:43.299Z,960.13
2016-09-01T04:13:51.517Z,960.13
2016-09-01T04:14:42.072Z,960.10
2016-09-01T04:15:49.804Z,960.07
2016-09-01T04:16:43.676Z,960.14
2016-09-01T04:17:51.703Z,960.15
2016-09-01T04:18:48.127Z,960.14
2016-09-01T04:19:45.847Z,960.14
2016-09-01T04:20:51.152Z,960.10
2016-09-01T04:21:51.829Z,960.09
2016-09-01T04:22:39.471Z,960.12
2016-09-01T04:23:41.205Z,960.10
2016-09-01T04:24:49.757Z,960.07
2016-09-01T04:25:49.008Z,960.13
2016-09-01T04:26:39.547Z,960.11
2016-09-01T04:27:50.778Z,960.09
2016-09-01T04:28:45.800Z,960.12
2016-09-01T04:29:46.189Z,960.09
2016-09-01T04:30:43.416Z,960.10
2016-09-01T04:31:44.878Z,960.05
2016-09-01T04:32:42.917Z,960.09
2016-09-01T04:33:44.542Z,960.05
2016-09-01T04:34:44.412Z,960.06
2016-09-01T04:35:54.012Z,960.08
2016-09-01T04:36:38.209Z,960.04
2016-09-01T04:37:47.693Z,960.07
2016-09-01T04:38:44.272Z,960.08
2016-09-01T04:39:51.264Z,960.08
2016-09-01T04:40:45.312Z,960.11
2016-09-01T04:41:41.783Z,960.09
2016-09-01T04:42:50.783Z,960.10
2016-09-01T04:43:37.904Z,960.04
2016-09-01T04:44:39.715Z,960.03
2016-09-01T04:46:00.163Z,960.00
2016-09-01T04:46:58.310Z,959.96
2016-09-01T04:47:48.340Z,960.01
2016-09-01T04:48:47.288Z,959.97
2016-09-01T04:49:35.573Z,959.95
2016-09-01T04:50:29.168Z,959.92
2016-09-01T04:51:49.759Z,959.91
2016-09-01T04:52:43.293Z,959.90
2016-09-01T04:53:41.540Z,959.88
2016-09-01T04:54:29.716Z,959.95
2016-09-01T04:55:45.352Z,959.96
2016-09-01T04:56:41.698Z,959.94
2016-09-01T04:57:51.350Z,960.01
2016-09-01T04:58:47.617Z,960.04
2016-09-01T04:59:54.216Z,960.10
2016-09-01T05:00:57.573Z,960.12
2016-09-01T05:01:41.376Z,960.07
2016-09-01T05:02:46.429Z,960.08
2016-09-01T05:03:39.254Z,960.05
2016-09-01T05:04:40.334Z,960.15
2016-09-01T05:05:39.533Z,960.21
2016-09-01T05:06:38.943Z,960.25
2016-09-01T05:07:46.475Z,960.25
2016-09-01T05:08:48.738Z,960.22
2016-09-01T05:09:40.936Z,960.24
2016-09-01T05:10:39.475Z,960.20
2016-09-01T05:11:40.129Z,960.16
2016-09-01T05:12:28.215Z,960.14
2016-09-01T05:13:21.180Z,960.24
2016-09-01T05:14:20.799Z,960.34
2016-09-01T05:15:21.816Z,960.37
2016-09-01T05:16:14.896Z,960.41
2016-09-01T05:17:31.125Z,960.38
2016-09-01T05:18:22.260Z,960.36
2016-09-01T05:19:43.458Z,960.40
2016-09-01T05:20:14.628Z,960.37
2016-09-01T05:21:28.658Z,960.31
2016-09-01T05:22:12.604Z,960.31
2016-09-01T05:23:28.679Z,960.36
2016-09-01T05:24:23.214Z,960.36
2016-09-01T05:25:38.683Z,960.36
2016-09-01T05:26:44.673Z,960.37
2016-09-01T05:27:38.253Z,960.39
2016-09-01T05:28:37.830Z,960.37
2016-09-01T05:29:35.967Z,960.39
2016-09-01T05:30:40.967Z,960.38
2016-09-01T05:31:43.505Z,960.44
2016-09-01T05:32:39.456Z,960.48
2016-09-01T05:33:50.605Z,960.50
2016-09-01T05:34:39.558Z,960.53
2016-09-01T05:35:39.614Z,960.53
2016-09-01T05:36:45.155Z,960.52
2016-09-01T05:37:46.451Z,960.55
2016-09-01T05:38:39.174Z,960.52
2016-09-01T05:39:40.622Z,960.56
2016-09-01T05:40:22.444Z,960.54
2016-09-01T05:41:49.037Z,960.53
2016-09-01T05:42:15.745Z,960.53
2016-09-01T05:43:42.865Z,960.56
2016-09-01T05:44:21.290Z,960.54
2016-09-01T05:45:42.954Z,960.52
2016-09-01T05:46:40.394Z,960.52
2016-09-01T05:47:39.105Z,960.54
2016-09-01T05:48:40.723Z,960.51
2016-09-01T05:49:37.659Z,960.54
2016-09-01T05:50:45.719Z,960.54
2016-09-01T05:51:36.891Z,960.46
2016-09-01T05:52:44.688Z,960.44
2016-09-01T05:53:40.561Z,960.47
2016-09-01T05:54:51.180Z,960.43
2016-09-01T05:55:37.943Z,960.40
2016-09-01T05:56:44.881Z,960.38
2016-09-01T05:57:44.833Z,960.40
2016-09-01T05:58:50.563Z,960.44
2016-09-01T05:59:50.667Z,960.50
2016-09-01T06:00:40.084Z,960.52
2016-09-01T06:01:35.325Z,960.55
2016-09-01T06:02:44.920Z,960.56
2016-09-01T06:03:44.945Z,960.56
2016-09-01T06:04:39.943Z,960.56
2016-09-01T06:05:41.387Z,960.61
2016-09-01T06:06:44.528Z,960.61
2016-09-01T06:07:41.053Z,960.62
2016-09-01T06:08:35.002Z,960.65
2016-09-01T06:09:44.944Z,960.69
2016-09-01T06:10:50.880Z,960.69
2016-09-01T06:11:39.001Z,960.74
2016-09-01T06:12:40.352Z,960.73
2016-09-01T06:13:48.682Z,960.74
2016-09-01T06:14:39.449Z,960.72
2016-09-01T06:15:44.872Z,960.72
2016-09-01T06:16:45.539Z,960.75
2016-09-01T06:17:39.707Z,960.72
2016-09-01T06:18:47.933Z,960.72
2016-09-01T06:19:39.450Z,960.72
2016-09-01T06:20:45.528Z,960.72
2016-09-01T06:21:37.943Z,960.69
2016-09-01T06:22:40.959Z,960.74
2016-09-01T06:23:50.561Z,960.71
2016-09-01T06:24:40.871Z,960.69
2016-09-01T06:25:41.221Z,960.67
2016-09-01T06:26:49.703Z,960.73
2016-09-01T06:27:48.632Z,960.70
2016-09-01T06:28:26.431Z,960.70
2016-09-01T06:29:44.000Z,960.74
2016-09-01T06:30:39.832Z,960.75
2016-09-01T06:31:54.675Z,960.77
2016-09-01T06:32:40.682Z,960.78
2016-09-01T06:33:37.716Z,960.77
2016-09-01T06:34:51.542Z,960.77
2016-09-01T06:35:49.253Z,960.75
2016-09-01T06:37:39.974Z,960.83
2016-09-01T06:38:40.427Z,960.81
2016-09-01T06:39:44.779Z,960.80
2016-09-01T06:40:51.380Z,960.79
2016-09-01T06:41:43.297Z,960.75
2016-09-01T06:42:49.554Z,960.81
2016-09-01T06:43:46.467Z,960.81
2016-09-01T06:44:37.899Z,960.77
2016-09-01T06:46:01.292Z,960.79
2016-09-01T06:46:34.054Z,960.85
2016-09-01T06:47:29.130Z,960.86
2016-09-01T06:48:32.457Z,960.87
2016-09-01T06:49:27.714Z,960.89
2016-09-01T06:50:39.525Z,960.91
2016-09-01T06:51:15.659Z,960.93
2016-09-01T06:52:15.997Z,960.96
2016-09-01T06:53:26.202Z,960.97
2016-09-01T06:54:20.314Z,960.97
2016-09-01T06:55:31.529Z,960.98
2016-09-01T06:56:31.557Z,961.01
2016-09-01T06:57:33.663Z,961.00
2016-09-01T06:58:44.047Z,961.07
2016-09-01T06:59:40.991Z,961.03
2016-09-01T07:00:39.597Z,961.04
2016-09-01T07:01:42.174Z,961.03
2016-09-01T07:02:43.776Z,961.06
2016-09-01T07:03:33.704Z,961.08
2016-09-01T07:04:50.266Z,961.08
2016-09-01T07:05:43.058Z,961.17
2016-09-01T07:06:40.412Z,961.17
2016-09-01T07:07:44.249Z,961.19
2016-09-01T07:08:29.248Z,961.19
2016-09-01T07:09:40.031Z,961.21
2016-09-01T07:10:38.287Z,961.22
2016-09-01T07:11:40.965Z,961.25
2016-09-01T07:12:41.364Z,961.29
2016-09-01T07:13:42.851Z,961.28
2016-09-01T07:14:39.707Z,961.32
2016-09-01T07:15:39.460Z,961.30
2016-09-01T07:16:43.122Z,961.32
2016-09-01T07:17:28.831Z,961.32
2016-09-01T07:18:37.541Z,961.35
2016-09-01T07:19:46.347Z,961.35
2016-09-01T07:20:39.490Z,961.36
2016-09-01T07:21:38.958Z,961.34
2016-09-01T07:22:38.387Z,961.39
2016-09-01T07:23:45.101Z,961.36
2016-09-01T07:24:37.531Z,961.42
2016-09-01T07:25:34.954Z,961.43
2016-09-01T07:26:49.881Z,961.43
2016-09-01T07:27:40.763Z,961.49
2016-09-01T07:28:47.392Z,961.47
2016-09-01T07:29:48.424Z,961.43
2016-09-01T07:30:43.926Z,961.43
2016-09-01T07:31:45.403Z,961.45
2016-09-01T07:32:40.391Z,961.44
2016-09-01T07:33:45.988Z,961.47
2016-09-01T07:34:44.489Z,961.47
2016-09-01T07:35:40.241Z,961.46
2016-09-01T07:36:39.213Z,961.47
2016-09-01T07:37:31.938Z,961.51
2016-09-01T07:38:35.279Z,961.52
2016-09-01T07:39:46.329Z,961.57
2016-09-01T07:41:29.122Z,961.57
2016-09-01T07:41:55.882Z,961.51
2016-09-01T07:42:45.193Z,961.53
2016-09-01T07:43:41.223Z,961.54
2016-09-01T07:44:37.721Z,961.54
2016-09-01T07:45:41.199Z,961.53
2016-09-01T07:46:21.206Z,961.53
2016-09-01T07:47:39.544Z,961.57
2016-09-01T07:48:27.469Z,961.59
2016-09-01T07:49:49.754Z,961.60
2016-09-01T07:50:40.310Z,961.64
2016-09-01T07:51:37.936Z,961.66
2016-09-01T07:52:39.700Z,961.66
2016-09-01T07:53:47.055Z,961.72
2016-09-01T07:54:39.471Z,961.71
2016-09-01T07:55:40.219Z,961.72
2016-09-01T07:56:21.735Z,961.76
2016-09-01T07:57:39.161Z,961.73
2016-09-01T07:58:45.533Z,961.74
2016-09-01T07:59:42.281Z,961.77
2016-09-01T08:00:47.524Z,961.77
2016-09-01T08:01:43.947Z,961.75
2016-09-01T08:02:23.510Z,961.79
2016-09-01T08:03:47.490Z,961.79
2016-09-01T08:04:37.221Z,961.78
2016-09-01T08:05:44.335Z,961.77
2016-09-01T08:06:39.527Z,961.83
2016-09-01T08:07:46.462Z,961.81
2016-09-01T08:08:34.245Z,961.80
2016-09-01T08:09:27.193Z,961.81
2016-09-01T08:10:39.313Z,961.79
2016-09-01T08:11:45.179Z,961.76
2016-09-01T08:12:38.204Z,961.78
2016-09-01T08:13:32.877Z,961.79
2016-09-01T08:14:36.876Z,961.77
2016-09-01T08:15:28.757Z,961.77
2016-09-01T08:16:50.321Z,961.80
2016-09-01T08:17:50.313Z,961.76
2016-09-01T08:18:31.397Z,961.79
2016-09-01T08:19:32.711Z,961.73
2016-09-01T08:20:40.443Z,961.78
2016-09-01T08:21:41.187Z,961.74
2016-09-01T08:22:30.804Z,961.82
2016-09-01T08:23:44.518Z,961.78
2016-09-01T08:24:40.195Z,961.80
2016-09-01T08:25:44.736Z,961.80
2016-09-01T08:26:47.013Z,961.76
2016-09-01T08:27:49.159Z,961.75
2016-09-01T08:28:43.785Z,961.81
2016-09-01T08:29:39.856Z,961.82
2016-09-01T08:30:39.151Z,961.78
2016-09-01T08:31:44.947Z,961.83
2016-09-01T08:32:39.942Z,961.84
2016-09-01T08:33:39.983Z,961.83
2016-09-01T08:34:26.064Z,961.81
2016-09-01T08:35:35.086Z,961.83
2016-09-01T08:36:46.794Z,961.83
2016-09-01T08:37:40.341Z,961.82
2016-09-01T08:38:43.915Z,961.84
2016-09-01T08:39:33.127Z,961.83
2016-09-01T08:40:36.145Z,961.86
2016-09-01T08:41:39.986Z,961.87
2016-09-01T08:42:33.828Z,961.87
2016-09-01T08:43:51.703Z,961.95
2016-09-01T08:44:37.199Z,961.96
2016-09-01T08:45:39.017Z,961.93
2016-09-01T08:46:35.370Z,961.92
2016-09-01T08:47:30.864Z,961.92
2016-09-01T08:48:39.734Z,961.94
2016-09-01T08:49:30.067Z,961.93
2016-09-01T08:50:38.404Z,961.96
2016-09-01T08:51:39.449Z,961.92
2016-09-01T08:52:38.478Z,961.94
2016-09-01T08:53:39.798Z,961.92
2016-09-01T08:54:46.451Z,961.94
2016-09-01T08:55:42.099Z,961.91
2016-09-01T08:56:20.248Z,961.91
2016-09-01T08:57:17.546Z,961.90
2016-09-01T08:58:13.382Z,961.85
2016-09-01T08:59:39.088Z,961.88
2016-09-01T09:00:45.193Z,961.84
2016-09-01T09:01:41.397Z,961.88
2016-09-01T09:02:40.608Z,961.87
2016-09-01T09:03:35.295Z,961.82
2016-09-01T09:04:27.834Z,961.88
2016-09-01T09:05:20.921Z,961.85
2016-09-01T09:06:15.635Z,961.81
2016-09-01T09:07:25.108Z,961.83
2016-09-01T09:08:19.270Z,961.84
2016-09-01T09:09:19.977Z,961.85
2016-09-01T09:10:22.085Z,961.87
2016-09-01T09:11:40.235Z,961.87
2016-09-01T09:12:42.701Z,961.85
2016-09-01T09:13:45.048Z,961.89
2016-09-01T09:14:44.924Z,961.85
2016-09-01T09:15:40.495Z,961.85
2016-09-01T09:16:45.002Z,961.83
2016-09-01T09:17:34.823Z,961.83
2016-09-01T09:18:35.392Z,961.82
2016-09-01T09:19:44.590Z,961.81
2016-09-01T09:20:39.222Z,961.77
2016-09-01T09:21:28.553Z,961.75
2016-09-01T09:22:48.893Z,961.81
2016-09-01T09:23:39.088Z,961.80
2016-09-01T09:24:45.124Z,961.80
2016-09-01T09:25:48.030Z,961.80
2016-09-01T09:26:40.489Z,961.78
2016-09-01T09:27:41.479Z,961.80
2016-09-01T09:28:29.239Z,961.76
2016-09-01T09:29:37.302Z,961.78
2016-09-01T09:30:35.572Z,961.76
2016-09-01T09:31:39.837Z,961.77
2016-09-01T09:32:32.360Z,961.77
2016-09-01T09:33:12.938Z,961.78
2016-09-01T09:34:13.859Z,961.77
2016-09-01T09:35:15.396Z,961.73
2016-09-01T09:36:22.017Z,961.73
2016-09-01T09:37:16.987Z,961.75
2016-09-01T09:38:42.522Z,961.73
2016-09-01T09:39:26.792Z,961.73
2016-09-01T09:40:22.725Z,961.74
2016-09-01T09:41:14.668Z,961.76
2016-09-01T09:42:16.264Z,961.74
2016-09-01T09:43:14.675Z,961.71
2016-09-01T09:44:14.884Z,961.73
2016-09-01T09:45:15.143Z,961.78
2016-09-01T09:46:11.982Z,961.78
2016-09-01T09:47:32.605Z,961.75
2016-09-01T09:48:44.876Z,961.75
2016-09-01T09:49:13.512Z,961.77
2016-09-01T09:50:14.505Z,961.82
2016-09-01T09:51:18.296Z,961.75
2016-09-01T09:52:21.247Z,961.76
2016-09-01T09:53:14.063Z,961.79
2016-09-01T09:54:15.106Z,961.78
2016-09-01T09:55:13.510Z,961.78
2016-09-01T09:56:23.875Z,961.78
2016-09-01T09:57:19.493Z,961.80
2016-09-01T09:58:14.027Z,961.83
2016-09-01T09:59:18.123Z,961.82
2016-09-01T10:00:15.931Z,961.78
2016-09-01T10:01:20.836Z,961.77
2016-09-01T10:02:25.174Z,961.78
2016-09-01T10:03:34.669Z,961.76
2016-09-01T10:04:40.048Z,961.78
2016-09-01T10:05:32.013Z,961.74
2016-09-01T10:06:14.427Z,961.72
2016-09-01T10:07:42.489Z,961.75
2016-09-01T10:08:39.362Z,961.73
2016-09-01T10:09:40.041Z,961.70
2016-09-01T10:10:29.257Z,961.71
2016-09-01T10:11:26.010Z,961.71
2016-09-01T10:12:22.639Z,961.74
2016-09-01T10:13:16.954Z,961.73
2016-09-01T10:14:16.727Z,961.71
2016-09-01T10:15:37.427Z,961.70
2016-09-01T10:16:38.479Z,961.69
2016-09-01T10:17:38.425Z,961.68
2016-09-01T10:18:37.585Z,961.73
2016-09-01T10:19:43.527Z,961.66
2016-09-01T10:20:43.991Z,961.64
2016-09-01T10:21:39.501Z,961.66
2016-09-01T10:22:27.425Z,961.66
2016-09-01T10:23:31.109Z,961.63
2016-09-01T10:24:40.047Z,961.67
2016-09-01T10:25:29.188Z,961.66
2016-09-01T10:26:23.493Z,961.65
2016-09-01T10:27:28.566Z,961.68
2016-09-01T10:28:21.037Z,961.65
2016-09-01T10:29:42.609Z,961.66
2016-09-01T10:30:40.930Z,961.65
2016-09-01T10:31:27.646Z,961.62
2016-09-01T10:32:17.907Z,961.64
2016-09-01T10:33:14.889Z,961.63
2016-09-01T10:34:39.754Z,961.60
2016-09-01T10:35:34.206Z,961.57
2016-09-01T10:36:37.904Z,961.55
2016-09-01T10:37:38.590Z,961.56
2016-09-01T10:38:38.801Z,961.50
2016-09-01T10:39:28.347Z,961.46
2016-09-01T10:40:35.392Z,961.48
2016-09-01T10:41:32.052Z,961.50
2016-09-01T10:42:27.710Z,961.46
2016-09-01T10:43:18.620Z,961.47
2016-09-01T10:44:25.529Z,961.42
2016-09-01T10:45:30.699Z,961.49
2016-09-01T10:46:15.061Z,961.44
2016-09-01T10:47:13.064Z,961.43
2016-09-01T10:48:19.639Z,961.48
2016-09-01T10:49:14.467Z,961.47
2016-09-01T10:50:23.273Z,961.45
2016-09-01T10:51:15.965Z,961.45
2016-09-01T10:52:25.965Z,961.45
2016-09-01T10:53:30.775Z,961.42
2016-09-01T10:54:18.399Z,961.41
2016-09-01T10:55:16.025Z,961.43
2016-09-01T10:56:23.506Z,961.44
2016-09-01T10:57:15.346Z,961.43
2016-09-01T10:58:45.271Z,961.45
2016-09-01T10:59:41.451Z,961.46
2016-09-01T11:00:20.842Z,961.45
2016-09-01T11:01:13.263Z,961.45
2016-09-01T11:02:14.145Z,961.40
2016-09-01T11:03:19.747Z,961.48
2016-09-01T11:04:29.285Z,961.43
2016-09-01T11:05:15.857Z,961.46
2016-09-01T11:06:13.364Z,961.43
2016-09-01T11:07:18.979Z,961.44
2016-09-01T11:08:21.901Z,961.42
2016-09-01T11:09:16.832Z,961.47
2016-09-01T11:10:17.070Z,961.45
2016-09-01T11:11:14.359Z,961.40
2016-09-01T11:12:32.676Z,961.40
2016-09-01T11:13:35.598Z,961.40
2016-09-01T11:14:44.674Z,961.36
2016-09-01T11:15:15.672Z,961.38
2016-09-01T11:16:35.571Z,961.35
2016-09-01T11:17:22.182Z,961.36
2016-09-01T11:18:32.559Z,961.38
2016-09-01T11:19:44.797Z,961.37
2016-09-01T11:20:20.865Z,961.40
2016-09-01T11:21:48.343Z,961.39
2016-09-01T11:22:45.542Z,961.39
2016-09-01T11:23:43.924Z,961.41
2016-09-01T11:24:47.325Z,961.36
2016-09-01T11:25:40.005Z,961.37
2016-09-01T11:26:39.451Z,961.35
2016-09-01T11:27:52.748Z,961.33
2016-09-01T11:28:46.688Z,961.33
2016-09-01T11:29:40.291Z,961.32
2016-09-01T11:30:45.727Z,961.35
2016-09-01T11:31:40.295Z,961.34
2016-09-01T11:32:40.562Z,961.29
2016-09-01T11:33:38.794Z,961.26
2016-09-01T11:34:41.503Z,961.27
2016-09-01T11:36:06.980Z,961.24
2016-09-01T11:36:44.074Z,961.26
2016-09-01T11:37:40.535Z,961.24
2016-09-01T11:38:49.966Z,961.22
2016-09-01T11:39:44.525Z,961.23
2016-09-01T11:40:27.339Z,961.21
2016-09-01T11:41:29.678Z,961.22
2016-09-01T11:42:45.188Z,961.21
2016-09-01T11:43:33.295Z,961.23
2016-09-01T11:44:33.119Z,961.20
2016-09-01T11:45:32.704Z,961.18
2016-09-01T11:46:33.910Z,961.22
2016-09-01T11:47:34.984Z,961.20
2016-09-01T11:48:22.432Z,961.19
2016-09-01T11:49:28.006Z,961.17
2016-09-01T11:50:41.575Z,961.17
2016-09-01T11:51:27.713Z,961.23
2016-09-01T11:52:37.969Z,961.22
2016-09-01T11:53:32.376Z,961.19
2016-09-01T11:54:42.945Z,961.18
2016-09-01T11:55:38.835Z,961.17
2016-09-01T11:56:35.245Z,961.15
2016-09-01T11:57:31.558Z,961.16
2016-09-01T11:58:38.506Z,961.14
2016-09-01T11:59:41.998Z,961.10
2016-09-01T12:00:37.845Z,961.08
2016-09-01T12:01:24.234Z,961.09
2016-09-01T12:02:20.042Z,961.06
2016-09-01T12:03:30.906Z,961.08
2016-09-01T12:04:34.084Z,961.11
2016-09-01T12:05:27.539Z,961.12
2016-09-01T12:06:38.177Z,961.07
2016-09-01T12:07:29.085Z,961.08
2016-09-01T12:08:29.322Z,961.06
2016-09-01T12:09:41.534Z,961.04
2016-09-01T12:10:43.901Z,961.01
2016-09-01T12:11:33.409Z,961.06
2016-09-01T12:12:25.809Z,961.03
2016-09-01T12:13:38.342Z,961.03
2016-09-01T12:14:37.296Z,961.07
2016-09-01T12:15:35.385Z,960.95
2016-09-01T12:16:45.469Z,960.93
2016-09-01T12:17:41.236Z,960.95
2016-09-01T12:18:46.133Z,960.95
2016-09-01T12:19:40.811Z,960.93
2016-09-01T12:20:38.791Z,960.99
2016-09-01T12:21:50.394Z,960.92
2016-09-01T12:22:48.103Z,960.90
2016-09-01T12:23:21.452Z,960.87
2016-09-01T12:24:34.730Z,960.90
2016-09-01T12:25:14.568Z,960.87
2016-09-01T12:26:22.956Z,960.86
2016-09-01T12:27:13.548Z,960.85
2016-09-01T12:28:32.912Z,960.85
2016-09-01T12:29:16.703Z,960.89
2016-09-01T12:30:30.210Z,960.84